createdAt,value
2023-01-29T00:00:33.906Z,102758.16
2023-01-29T00:03:00.556Z,102761.25
2023-01-29T00:05:28.465Z,102755.31
2023-01-29T00:07:56.840Z,102755.94
2023-01-29T00:10:25.276Z,102759.59
2023-01-29T00:12:52.012Z,102754.53
2023-01-29T00:15:18.765Z,102755.31
2023-01-29T00:17:45.328Z,102745.94
2023-01-29T00:20:12.678Z,102741.03
2023-01-29T00:22:39.269Z,102743.63
2023-01-29T00:25:06.364Z,102740.94
2023-01-29T00:27:32.998Z,102746.56
2023-01-29T00:30:12.037Z,102742.13
2023-01-29T00:32:41.224Z,102744.75
2023-01-29T00:35:09.193Z,102732.59
2023-01-29T00:37:35.933Z,102736.00
2023-01-29T00:40:02.730Z,102734.97
2023-01-29T00:42:52.156Z,102731.47
2023-01-29T00:45:18.782Z,102744.25
2023-01-29T00:47:45.502Z,102740.59
2023-01-29T00:50:13.352Z,102735.63
2023-01-29T00:52:43.443Z,102736.47
2023-01-29T00:55:10.857Z,102728.00
2023-01-29T00:57:38.475Z,102727.81
2023-01-29T01:00:08.344Z,102730.44
2023-01-29T01:02:54.049Z,102732.81
2023-01-29T01:05:24.103Z,102732.56
2023-01-29T01:07:57.212Z,102740.97
2023-01-29T01:16:40.656Z,102744.72
2023-01-29T01:19:55.708Z,102747.66
2023-01-29T01:22:38.661Z,102739.72
2023-01-29T01:25:09.859Z,102741.94
2023-01-29T01:27:40.930Z,102741.78
2023-01-29T01:30:13.526Z,102734.25
2023-01-29T01:32:40.964Z,102734.53
2023-01-29T01:35:09.131Z,102732.97
2023-01-29T01:37:39.937Z,102722.28
2023-01-29T01:40:12.979Z,102711.28
2023-01-29T01:42:40.196Z,102703.91
2023-01-29T01:45:18.097Z,102703.13
2023-01-29T01:47:50.220Z,102698.84
2023-01-29T01:50:25.395Z,102699.56
2023-01-29T01:52:55.729Z,102701.91
2023-01-29T01:55:26.735Z,102704.53
2023-01-29T01:57:58.200Z,102702.72
2023-01-29T02:00:26.725Z,102711.47
2023-01-29T02:03:12.961Z,102698.91
2023-01-29T02:05:58.786Z,102702.41
2023-01-29T02:09:08.571Z,102708.19
2023-01-29T02:11:36.723Z,102711.53
2023-01-29T02:14:03.609Z,102710.56
2023-01-29T02:16:30.408Z,102705.50
2023-01-29T02:18:57.195Z,102711.22
2023-01-29T02:21:57.460Z,102703.59
2023-01-29T02:24:50.539Z,102714.59
2023-01-29T02:27:25.474Z,102725.13
2023-01-29T02:30:01.557Z,102730.19
2023-01-29T02:32:42.396Z,102739.13
2023-01-29T02:35:30.782Z,102740.88
2023-01-29T02:38:12.983Z,102749.94
2023-01-29T02:40:51.652Z,102754.31
2023-01-29T02:43:47.787Z,102750.81
2023-01-29T02:46:32.596Z,102745.25
2023-01-29T02:49:05.787Z,102753.84
2023-01-29T02:51:36.684Z,102757.41
2023-01-29T02:54:04.796Z,102751.47
2023-01-29T02:56:39.561Z,102748.84
2023-01-29T02:59:10.651Z,102739.72
2023-01-29T03:01:44.098Z,102732.91
2023-01-29T03:04:14.449Z,102734.00
2023-01-29T03:06:49.784Z,102736.00
2023-01-29T03:09:26.984Z,102732.56
2023-01-29T03:11:58.714Z,102729.78
2023-01-29T03:14:56.555Z,102721.19
2023-01-29T03:17:27.180Z,102718.34
2023-01-29T03:19:54.290Z,102720.16
2023-01-29T03:22:23.296Z,102720.56
2023-01-29T03:25:15.659Z,102723.19
2023-01-29T03:28:04.807Z,102729.84
2023-01-29T03:31:00.739Z,102724.94
2023-01-29T03:34:07.985Z,102729.22
2023-01-29T03:36:45.188Z,102735.63
2023-01-29T03:39:14.167Z,102743.41
2023-01-29T03:41:50.479Z,102742.34
2023-01-29T03:44:34.258Z,102740.69
2023-01-29T03:47:26.193Z,102739.56
2023-01-29T03:50:03.253Z,102734.34
2023-01-29T03:53:02.432Z,102736.00
2023-01-29T03:55:32.549Z,102726.63
2023-01-29T03:58:23.140Z,102737.56
2023-01-29T04:00:56.293Z,102726.31
2023-01-29T04:03:48.342Z,102733.13
2023-01-29T04:06:22.424Z,102723.38
2023-01-29T04:09:30.367Z,102722.75
2023-01-29T04:12:09.220Z,102722.56
2023-01-29T04:14:39.285Z,102713.56
2023-01-29T04:17:16.513Z,102712.69
2023-01-29T04:19:54.215Z,102707.78
2023-01-29T04:22:25.553Z,102709.81
2023-01-29T04:24:53.278Z,102704.72
2023-01-29T04:27:35.513Z,102703.88
2023-01-29T04:30:14.514Z,102694.75
2023-01-29T04:33:14.917Z,102687.69
2023-01-29T04:35:54.375Z,102676.44
2023-01-29T04:38:44.997Z,102686.06
2023-01-29T04:41:19.951Z,102685.41
2023-01-29T04:44:11.066Z,102690.31
2023-01-29T04:47:01.770Z,102694.41
2023-01-29T04:49:37.985Z,102693.75
2023-01-29T04:52:22.913Z,102681.06
2023-01-29T04:55:10.268Z,102676.09
2023-01-29T04:58:08.232Z,102676.72
2023-01-29T05:00:41.721Z,102667.19
2023-01-29T05:03:35.076Z,102676.16
2023-01-29T05:06:02.640Z,102672.53
2023-01-29T05:08:30.957Z,102670.94
2023-01-29T05:10:59.191Z,102679.88
2023-01-29T05:13:27.135Z,102682.69
2023-01-29T05:16:04.199Z,102679.19
2023-01-29T05:18:31.609Z,102666.25
2023-01-29T05:22:25.434Z,102663.97
2023-01-29T05:24:37.808Z,102658.34
2023-01-29T05:27:23.647Z,102659.56
2023-01-29T05:29:50.341Z,102658.34
2023-01-29T05:32:18.860Z,102652.78
2023-01-29T05:34:51.345Z,102660.09
2023-01-29T05:37:18.014Z,102662.38
2023-01-29T05:39:44.637Z,102654.31
2023-01-29T05:42:11.355Z,102652.50
2023-01-29T05:44:38.051Z,102649.72
2023-01-29T05:47:04.779Z,102649.72
2023-01-29T05:49:31.589Z,102639.00
2023-01-29T05:52:01.309Z,102639.88
2023-01-29T05:54:30.616Z,102642.09
2023-01-29T05:56:57.406Z,102647.41
2023-01-29T05:59:24.294Z,102640.66
2023-01-29T06:01:51.068Z,102644.41
2023-01-29T06:04:18.714Z,102657.75
2023-01-29T06:06:45.656Z,102659.25
2023-01-29T06:09:12.458Z,102662.03
2023-01-29T06:11:39.488Z,102670.13
2023-01-29T06:14:06.218Z,102675.50
2023-01-29T06:16:32.989Z,102676.00
2023-01-29T06:18:59.744Z,102673.06
2023-01-29T06:21:26.397Z,102681.88
2023-01-29T06:23:53.854Z,102689.81
2023-01-29T06:26:21.180Z,102683.31
2023-01-29T06:28:51.545Z,102697.66
2023-01-29T06:31:38.239Z,102696.16
2023-01-29T06:34:05.707Z,102700.59
2023-01-29T06:36:32.714Z,102703.38
2023-01-29T06:38:59.595Z,102712.69
2023-01-29T06:41:26.396Z,102697.56
2023-01-29T06:43:55.857Z,102698.84
2023-01-29T06:46:22.623Z,102699.75
2023-01-29T06:48:49.340Z,102713.06
2023-01-29T06:51:16.045Z,102703.94
2023-01-29T06:53:44.732Z,102689.81
2023-01-29T06:56:12.679Z,102695.13
2023-01-29T06:58:39.386Z,102693.69
2023-01-29T07:01:11.131Z,102678.38
2023-01-29T07:03:41.530Z,102677.59
2023-01-29T07:06:08.298Z,102665.22
2023-01-29T07:08:39.158Z,102670.28
2023-01-29T07:11:06.987Z,102677.13
2023-01-29T07:13:33.820Z,102677.75
2023-01-29T07:16:01.728Z,102667.59
2023-01-29T07:18:29.214Z,102682.66
2023-01-29T07:20:56.637Z,102689.00
2023-01-29T07:23:23.605Z,102688.44
2023-01-29T07:25:50.911Z,102686.56
2023-01-29T07:28:18.318Z,102689.34
2023-01-29T07:30:45.031Z,102689.97
2023-01-29T07:33:12.694Z,102690.69
2023-01-29T07:35:41.370Z,102690.97
2023-01-29T07:38:11.831Z,102680.47
2023-01-29T07:40:41.906Z,102694.69
2023-01-29T07:43:12.234Z,102670.72
2023-01-29T07:45:42.649Z,102669.41
2023-01-29T07:48:14.812Z,102668.72
2023-01-29T07:50:45.145Z,102671.16
2023-01-29T07:53:15.138Z,102675.19
2023-01-29T07:55:44.708Z,102679.06
2023-01-29T07:58:11.861Z,102677.75
2023-01-29T08:00:39.067Z,102669.84
2023-01-29T08:03:07.870Z,102669.13
2023-01-29T08:05:47.762Z,102663.50
2023-01-29T08:08:15.424Z,102657.56
2023-01-29T08:10:55.120Z,102666.69
2023-01-29T08:13:21.728Z,102664.91
2023-01-29T08:15:48.373Z,102663.25
2023-01-29T08:18:15.476Z,102662.22
2023-01-29T08:20:42.258Z,102669.28
2023-01-29T08:23:14.097Z,102664.56
2023-01-29T08:25:40.876Z,102657.03
2023-01-29T08:28:15.245Z,102667.22
2023-01-29T08:30:44.063Z,102659.19
2023-01-29T08:33:11.184Z,102668.94
2023-01-29T08:35:38.045Z,102656.50
2023-01-29T08:38:10.170Z,102660.72
2023-01-29T08:40:38.040Z,102663.94
2023-01-29T08:43:09.446Z,102655.16
2023-01-29T08:48:39.262Z,102664.69
2023-01-29T08:51:06.193Z,102660.03
2023-01-29T08:53:32.977Z,102648.91
2023-01-29T08:55:59.757Z,102657.53
2023-01-29T08:58:26.418Z,102657.53
2023-01-29T09:00:53.357Z,102661.81
2023-01-29T09:03:20.703Z,102664.53
2023-01-29T09:05:47.979Z,102661.47
2023-01-29T09:08:15.478Z,102649.47
2023-01-29T09:10:42.293Z,102650.78
2023-01-29T09:13:08.970Z,102638.56
2023-01-29T09:15:35.604Z,102633.25
2023-01-29T09:18:05.669Z,102635.16
2023-01-29T09:20:32.791Z,102630.97
2023-01-29T09:23:05.048Z,102630.34
2023-01-29T09:25:32.936Z,102628.97
2023-01-29T09:27:59.537Z,102635.16
2023-01-29T09:30:26.137Z,102629.94
2023-01-29T09:32:56.172Z,102628.59
2023-01-29T09:35:23.658Z,102615.69
2023-01-29T09:37:51.087Z,102615.06
2023-01-29T09:40:29.813Z,102611.22
2023-01-29T09:43:03.102Z,102611.09
2023-01-29T09:45:30.789Z,102606.25
2023-01-29T09:48:03.527Z,102602.78
2023-01-29T09:50:37.794Z,102603.50
2023-01-29T09:53:25.715Z,102602.38
2023-01-29T09:55:54.098Z,102597.06
2023-01-29T09:58:32.497Z,102593.09
2023-01-29T10:01:21.249Z,102587.41
2023-01-29T10:04:17.178Z,102584.25
2023-01-29T10:07:02.551Z,102583.66
2023-01-29T10:09:44.721Z,102588.03
2023-01-29T10:12:26.485Z,102594.16
2023-01-29T10:15:21.078Z,102596.88
2023-01-29T10:18:16.947Z,102599.13
2023-01-29T10:20:56.487Z,102604.13
2023-01-29T10:23:31.168Z,102600.53
2023-01-29T10:25:59.291Z,102599.06
2023-01-29T10:28:28.504Z,102591.84
2023-01-29T10:31:00.442Z,102595.44
2023-01-29T10:33:49.212Z,102596.09
2023-01-29T10:36:26.244Z,102596.09
2023-01-29T10:38:53.025Z,102593.72
2023-01-29T10:41:47.118Z,102596.44
2023-01-29T10:44:32.441Z,102585.88
2023-01-29T10:47:13.588Z,102578.56
2023-01-29T10:50:10.343Z,102586.50
2023-01-29T10:53:05.019Z,102569.06
2023-01-29T10:55:50.136Z,102560.59
2023-01-29T10:58:22.799Z,102559.63
2023-01-29T11:00:49.934Z,102569.25
2023-01-29T11:03:27.897Z,102556.75
2023-01-29T11:06:19.235Z,102552.75
2023-01-29T11:09:10.960Z,102548.97
2023-01-29T11:11:53.153Z,102545.81
2023-01-29T11:14:25.344Z,102543.03
2023-01-29T11:16:52.505Z,102523.47
2023-01-29T11:19:37.007Z,102531.91
2023-01-29T11:22:04.440Z,102533.03
2023-01-29T11:24:31.243Z,102529.59
2023-01-29T11:26:59.611Z,102528.28
2023-01-29T11:29:40.446Z,102534.69
2023-01-29T11:32:19.767Z,102520.88
2023-01-29T11:35:16.034Z,102518.44
2023-01-29T11:37:45.148Z,102517.59
2023-01-29T11:40:24.172Z,102515.63
2023-01-29T11:42:54.783Z,102509.88
2023-01-29T11:45:28.027Z,102507.63
2023-01-29T11:47:57.417Z,102496.69
2023-01-29T11:50:32.330Z,102491.22
2023-01-29T11:53:00.571Z,102494.69
2023-01-29T11:55:48.206Z,102477.66
2023-01-29T11:58:28.974Z,102473.84
2023-01-29T12:00:57.354Z,102461.13
2023-01-29T12:03:41.989Z,102457.06
2023-01-29T12:06:19.928Z,102462.56
2023-01-29T12:08:58.663Z,102453.47
2023-01-29T12:11:29.577Z,102455.59
2023-01-29T12:13:59.439Z,102440.72
2023-01-29T12:16:53.904Z,102432.81
2023-01-29T12:19:32.171Z,102423.56
2023-01-29T12:22:21.638Z,102404.91
2023-01-29T12:24:55.180Z,102402.50
2023-01-29T12:27:27.762Z,102397.41
2023-01-29T12:30:15.385Z,102387.13
2023-01-29T12:32:59.036Z,102368.84
2023-01-29T12:35:30.348Z,102366.22
2023-01-29T12:38:27.266Z,102352.13
2023-01-29T12:40:58.533Z,102343.06
2023-01-29T12:43:38.931Z,102336.25
2023-01-29T12:46:10.696Z,102338.47
2023-01-29T12:48:39.838Z,102338.34
2023-01-29T12:51:11.413Z,102334.16
2023-01-29T12:53:43.648Z,102338.44
2023-01-29T12:56:13.311Z,102328.69
2023-01-29T12:58:48.521Z,102328.41
2023-01-29T13:01:40.827Z,102312.38
2023-01-29T13:04:16.692Z,102304.47
2023-01-29T13:06:49.274Z,102298.97
2023-01-29T13:09:21.364Z,102293.16
2023-01-29T13:12:17.046Z,102291.47
2023-01-29T13:14:50.542Z,102293.97
2023-01-29T13:17:20.146Z,102290.88
2023-01-29T13:19:51.019Z,102293.75
2023-01-29T13:22:23.517Z,102285.59
2023-01-29T13:25:03.620Z,102287.06
2023-01-29T13:27:34.462Z,102276.16
2023-01-29T13:30:01.552Z,102283.53
2023-01-29T13:32:30.312Z,102282.75
2023-01-29T13:35:00.232Z,102288.63
2023-01-29T13:37:35.487Z,102289.44
2023-01-29T13:40:05.619Z,102285.97
2023-01-29T13:42:48.521Z,102289.38
2023-01-29T13:45:35.182Z,102291.94
2023-01-29T13:48:36.876Z,102291.34
2023-01-29T13:51:04.869Z,102290.59
2023-01-29T13:53:42.534Z,102297.16
2023-01-29T13:56:34.331Z,102294.69
2023-01-29T13:59:02.697Z,102298.28
2023-01-29T14:01:47.954Z,102295.91
2023-01-29T14:04:26.859Z,102292.38
2023-01-29T14:06:55.211Z,102291.66
2023-01-29T14:09:37.436Z,102287.56
2023-01-29T14:12:08.725Z,102280.78
2023-01-29T14:14:48.171Z,102276.69
2023-01-29T14:17:19.947Z,102276.69
2023-01-29T14:20:11.751Z,102277.59
2023-01-29T14:22:38.297Z,102274.72
2023-01-29T14:25:05.980Z,102271.38
2023-01-29T14:27:34.385Z,102268.69
2023-01-29T14:30:07.822Z,102273.94
2023-01-29T14:32:35.027Z,102267.97
2023-01-29T14:35:17.773Z,102269.50
2023-01-29T14:37:48.115Z,102268.94
2023-01-29T14:40:18.171Z,102264.63
2023-01-29T14:42:58.932Z,102267.19
2023-01-29T14:45:32.870Z,102264.72
2023-01-29T14:48:05.711Z,102262.78
2023-01-29T14:50:32.672Z,102260.28
2023-01-29T14:53:05.261Z,102253.50
2023-01-29T14:55:42.977Z,102259.38
2023-01-29T14:58:15.332Z,102256.72
2023-01-29T15:00:45.204Z,102255.09
2023-01-29T15:03:28.123Z,102250.06
2023-01-29T15:05:55.524Z,102256.03
2023-01-29T15:08:38.228Z,102257.84
2023-01-29T15:11:28.078Z,102252.72
2023-01-29T15:14:13.697Z,102250.94
2023-01-29T15:17:10.128Z,102250.94
2023-01-29T15:19:40.259Z,102250.91
2023-01-29T15:22:18.751Z,102245.78
2023-01-29T15:24:47.276Z,102241.47
2023-01-29T15:27:19.044Z,102243.25
2023-01-29T15:29:57.243Z,102245.78
2023-01-29T15:32:31.492Z,102235.53
2023-01-29T15:34:59.127Z,102225.34
2023-01-29T15:37:34.104Z,102227.03
2023-01-29T15:40:01.699Z,102224.50
2023-01-29T15:42:30.276Z,102220.25
2023-01-29T15:44:57.229Z,102224.53
2023-01-29T15:47:27.874Z,102209.16
2023-01-29T15:49:55.146Z,102206.59
2023-01-29T15:52:25.749Z,102207.47
2023-01-29T15:54:52.976Z,102210.91
2023-01-29T15:57:23.096Z,102207.47
2023-01-29T15:59:52.063Z,102212.59
2023-01-29T16:02:48.290Z,102205.91
2023-01-29T16:05:19.469Z,102213.72
2023-01-29T16:07:49.281Z,102206.00
2023-01-29T16:10:24.338Z,102211.06
2023-01-29T16:12:51.700Z,102210.25
2023-01-29T16:15:29.761Z,102203.38
2023-01-29T16:17:57.427Z,102204.31
2023-01-29T16:20:44.766Z,102204.31
2023-01-29T16:23:20.173Z,102192.41
2023-01-29T16:25:47.930Z,102192.31
2023-01-29T16:28:18.550Z,102192.41
2023-01-29T16:30:45.470Z,102182.16
2023-01-29T16:33:15.277Z,102177.09
2023-01-29T16:35:42.171Z,102171.06
2023-01-29T16:38:25.129Z,102168.59
2023-01-29T16:41:24.349Z,102160.84
2023-01-29T16:43:53.479Z,102163.41
2023-01-29T16:47:00.748Z,102161.84
2023-01-29T16:49:30.454Z,102166.06
2023-01-29T16:52:20.441Z,102157.44
2023-01-29T16:54:47.059Z,102160.91
2023-01-29T16:57:25.223Z,102159.19
2023-01-29T17:00:00.616Z,102164.31
2023-01-29T17:02:33.587Z,102163.38
2023-01-29T17:05:04.127Z,102162.53
2023-01-29T17:07:32.486Z,102163.31
2023-01-29T17:10:02.248Z,102165.03
2023-01-29T17:12:30.638Z,102163.38
2023-01-29T17:14:59.491Z,102160.81
2023-01-29T17:17:34.789Z,102159.97
2023-01-29T17:20:16.931Z,102151.50
2023-01-29T17:22:44.801Z,102145.50
2023-01-29T17:25:15.755Z,102136.97
2023-01-29T17:27:45.195Z,102134.41
2023-01-29T17:30:15.904Z,102125.91
2023-01-29T17:32:44.580Z,102138.66
2023-01-29T17:35:16.564Z,102142.97
2023-01-29T17:37:44.358Z,102141.31
2023-01-29T17:40:29.390Z,102140.41
2023-01-29T17:42:55.990Z,102143.03
2023-01-29T17:45:22.779Z,102126.88
2023-01-29T17:47:49.392Z,102124.31
2023-01-29T17:50:22.945Z,102126.88
2023-01-29T17:52:50.301Z,102122.66
2023-01-29T17:55:17.423Z,102115.81
2023-01-29T17:57:44.478Z,102128.59
2023-01-29T18:00:18.898Z,102126.06
2023-01-29T18:02:45.580Z,102109.88
2023-01-29T18:05:13.511Z,102109.81
2023-01-29T18:07:41.644Z,102111.56
2023-01-29T18:10:15.231Z,102102.19
2023-01-29T18:12:41.911Z,102095.38
2023-01-29T18:15:09.863Z,102095.38
2023-01-29T18:17:37.589Z,102087.72
2023-01-29T18:20:16.706Z,102088.53
2023-01-29T18:22:43.373Z,102078.28
2023-01-29T18:25:10.307Z,102080.03
2023-01-29T18:27:37.981Z,102072.38
2023-01-29T18:30:09.272Z,102064.75
2023-01-29T18:32:36.189Z,102059.66
2023-01-29T18:35:03.503Z,102094.69
2023-01-29T18:37:30.194Z,102074.91
2023-01-29T18:39:56.921Z,102074.91
2023-01-29T18:42:23.868Z,102080.03
2023-01-29T18:44:50.724Z,102084.22
2023-01-29T18:47:19.759Z,102071.38
2023-01-29T18:49:46.353Z,102063.69
2023-01-29T18:52:13.585Z,102058.56
2023-01-29T18:54:40.232Z,102062.88
2023-01-29T18:57:14.352Z,102049.25
2023-01-29T18:59:42.410Z,102047.59
2023-01-29T19:02:14.763Z,102043.41
2023-01-29T19:04:42.137Z,102032.25
2023-01-29T19:07:13.707Z,102030.63
2023-01-29T19:09:40.856Z,102038.31
2023-01-29T19:12:07.717Z,102034.13
2023-01-29T19:14:34.677Z,102039.41
2023-01-29T19:17:01.701Z,102040.19
2023-01-29T19:19:28.876Z,102034.28
2023-01-29T19:21:55.581Z,102030.00
2023-01-29T19:24:22.891Z,102026.59
2023-01-29T19:26:49.569Z,102034.28
2023-01-29T19:29:17.171Z,102027.50
2023-01-29T19:31:44.202Z,102024.13
2023-01-29T19:34:11.250Z,102008.69
2023-01-29T19:36:38.080Z,102010.47
2023-01-29T19:39:05.146Z,102012.16
2023-01-29T19:41:32.479Z,102001.94
2023-01-29T19:43:59.131Z,101990.00
2023-01-29T19:46:25.747Z,101988.38
2023-01-29T19:48:54.893Z,101972.19
2023-01-29T19:51:23.283Z,101965.41
2023-01-29T19:53:49.883Z,101973.00
2023-01-29T19:56:17.930Z,101958.56
2023-01-29T19:58:44.914Z,101964.50
2023-01-29T20:01:20.260Z,101960.13
2023-01-29T20:03:49.079Z,101958.34
2023-01-29T20:06:18.287Z,101956.66
2023-01-29T20:08:46.692Z,101947.31
2023-01-29T20:11:14.890Z,101949.06
2023-01-29T20:13:41.607Z,101947.34
2023-01-29T20:16:08.825Z,101935.44
2023-01-29T20:18:35.478Z,101932.06
2023-01-29T20:21:13.258Z,101921.00
2023-01-29T20:23:40.263Z,101913.41
2023-01-29T20:26:15.496Z,101914.28
2023-01-29T20:28:43.297Z,101912.66
2023-01-29T20:31:10.517Z,101902.38
2023-01-29T20:33:39.530Z,101878.50
2023-01-29T20:36:09.448Z,101891.38
2023-01-29T20:38:37.015Z,101890.56
2023-01-29T20:41:15.007Z,101887.13
2023-01-29T20:43:42.460Z,101882.88
2023-01-29T20:46:09.551Z,101878.63
2023-01-29T20:48:36.988Z,101879.50
2023-01-29T20:51:06.687Z,101869.28
2023-01-29T20:53:34.565Z,101865.91
2023-01-29T20:56:04.103Z,101886.38
2023-01-29T20:58:31.475Z,101876.19
2023-01-29T21:00:58.218Z,101880.47
2023-01-29T21:03:24.978Z,101869.38
2023-01-29T21:05:52.239Z,101875.41
2023-01-29T21:08:19.273Z,101876.22
2023-01-29T21:10:46.018Z,101860.09
2023-01-29T21:13:13.087Z,101866.06
2023-01-29T21:15:41.937Z,101867.78
2023-01-29T21:18:09.152Z,101862.78
2023-01-29T21:20:37.055Z,101875.63
2023-01-29T21:23:06.866Z,101867.94
2023-01-29T21:25:33.861Z,101864.56
2023-01-29T21:28:00.973Z,101857.78
2023-01-29T21:30:27.738Z,101845.91
2023-01-29T21:32:55.103Z,101844.22
2023-01-29T21:35:22.097Z,101840.91
2023-01-29T21:37:49.386Z,101837.47
2023-01-29T21:40:16.824Z,101830.69
2023-01-29T21:43:02.844Z,101846.09
2023-01-29T21:45:31.061Z,101854.63
2023-01-29T21:47:58.594Z,101852.94
2023-01-29T21:50:25.392Z,101853.88
2023-01-29T21:52:52.676Z,101865.00
2023-01-29T21:55:19.362Z,101868.41
2023-01-29T21:57:46.970Z,101873.53
2023-01-29T22:00:14.020Z,101868.47
2023-01-29T22:02:40.960Z,101880.44
2023-01-29T22:05:18.592Z,101877.03
2023-01-29T22:07:46.331Z,101868.50
2023-01-29T22:10:13.195Z,101883.03
2023-01-29T22:12:40.063Z,101876.22
2023-01-29T22:15:07.757Z,101865.16
2023-01-29T22:17:35.240Z,101857.47
2023-01-29T22:20:02.194Z,101847.22
2023-01-29T22:22:28.860Z,101847.16
2023-01-29T22:24:57.639Z,101855.72
2023-01-29T22:27:24.633Z,101850.63
2023-01-29T22:29:51.489Z,101865.94
2023-01-29T22:32:18.350Z,101848.88
2023-01-29T22:34:44.957Z,101849.72
2023-01-29T22:37:11.556Z,101846.34
2023-01-29T22:39:38.171Z,101837.75
2023-01-29T22:42:05.125Z,101845.44
2023-01-29T22:44:31.805Z,101839.50
2023-01-29T22:46:58.344Z,101841.19
2023-01-29T22:49:25.739Z,101825.00
2023-01-29T22:52:09.950Z,101826.69
2023-01-29T22:54:41.343Z,101818.16
2023-01-29T22:57:10.452Z,101791.72
2023-01-29T22:59:37.435Z,101788.34
2023-01-29T23:02:04.900Z,101773.84
2023-01-29T23:04:31.609Z,101758.50
2023-01-29T23:06:58.319Z,101756.78
2023-01-29T23:09:24.947Z,101734.63
2023-01-29T23:11:51.501Z,101698.69
2023-01-29T23:14:18.186Z,101707.22
2023-01-29T23:16:44.801Z,101707.28
2023-01-29T23:19:12.174Z,101703.84
2023-01-29T23:21:39.630Z,101691.91
2023-01-29T23:24:07.307Z,101708.13
2023-01-29T23:26:52.606Z,101696.16
2023-01-29T23:29:19.337Z,101719.25
2023-01-29T23:31:45.978Z,101716.75
2023-01-29T23:34:13.625Z,101724.44
2023-01-29T23:36:40.219Z,101706.53
2023-01-29T23:39:06.961Z,101715.91
2023-01-29T23:41:33.807Z,101708.25
2023-01-29T23:44:00.458Z,101696.28
2023-01-29T23:46:27.196Z,101694.59
2023-01-29T23:48:53.819Z,101690.38
2023-01-29T23:51:20.423Z,101691.22
2023-01-29T23:53:47.093Z,101681.84
2023-01-29T23:56:13.754Z,101675.06
2023-01-29T23:58:40.354Z,101658.84
